createdAt,value
2023-04-12T00:00:12.534Z,5.33
2023-04-12T00:02:43.730Z,6.67
2023-04-12T00:05:14.458Z,5.90
2023-04-12T00:07:46.955Z,4.67
2023-04-12T00:10:15.834Z,6.17
2023-04-12T00:12:44.139Z,8.20
2023-04-12T00:15:13.254Z,6.10
2023-04-12T00:17:42.172Z,6.87
2023-04-12T00:20:13.935Z,6.23
2023-04-12T00:22:42.811Z,4.73
2023-04-12T00:25:12.347Z,9.20
2023-04-12T00:27:40.799Z,5.97
2023-04-12T00:30:10.505Z,6.47
2023-04-12T00:32:38.852Z,6.20
2023-04-12T00:35:08.735Z,5.23
2023-04-12T00:37:38.789Z,4.20
2023-04-12T00:40:10.357Z,7.27
2023-04-12T00:42:39.179Z,7.10
2023-04-12T00:45:09.593Z,5.37
2023-04-12T00:47:40.330Z,7.30
2023-04-12T00:50:10.999Z,7.13
2023-04-12T00:52:41.902Z,6.47
2023-04-12T00:55:11.316Z,6.27
2023-04-12T00:57:41.737Z,8.37
2023-04-12T01:00:13.778Z,5.63
2023-04-12T01:02:47.852Z,6.97
2023-04-12T01:05:22.767Z,5.07
2023-04-12T01:08:14.965Z,8.13
2023-04-12T01:10:55.032Z,5.87
2023-04-12T01:13:33.918Z,6.30
2023-04-12T01:16:16.394Z,7.03
2023-04-12T01:18:52.142Z,6.13
2023-04-12T01:21:32.870Z,7.10
2023-04-12T01:24:24.682Z,4.90
2023-04-12T01:26:57.901Z,5.17
2023-04-12T01:29:31.887Z,5.63
2023-04-12T01:32:05.022Z,5.07
2023-04-12T01:34:36.699Z,6.37
2023-04-12T01:37:06.837Z,6.47
2023-04-12T01:39:35.938Z,11.53
2023-04-12T01:42:04.342Z,7.60
2023-04-12T01:44:34.089Z,9.07
2023-04-12T01:47:02.490Z,7.67
2023-04-12T01:49:43.590Z,7.77
2023-04-12T01:52:19.328Z,8.97
2023-04-12T01:54:54.468Z,6.03
2023-04-12T01:57:24.753Z,7.13
2023-04-12T01:59:58.011Z,9.50
2023-04-12T02:02:27.527Z,7.60
2023-04-12T02:04:57.181Z,7.00
2023-04-12T02:07:25.859Z,8.80
2023-04-12T02:09:54.232Z,8.20
2023-04-12T02:12:24.824Z,8.70
2023-04-12T02:14:54.524Z,7.67
2023-04-12T02:17:22.886Z,9.67
2023-04-12T02:19:51.559Z,9.17
2023-04-12T02:22:21.387Z,8.13
2023-04-12T02:24:50.348Z,6.97
2023-04-12T02:27:19.861Z,7.67
2023-04-12T02:29:48.121Z,7.33
2023-04-12T02:32:17.895Z,7.53
2023-04-12T02:34:51.365Z,9.43
2023-04-12T02:37:24.413Z,8.03
2023-04-12T02:39:56.834Z,5.67
2023-04-12T02:42:26.722Z,7.83
2023-04-12T02:44:55.102Z,7.07
2023-04-12T02:47:28.549Z,7.23
2023-04-12T02:49:58.577Z,9.20
2023-04-12T02:52:29.890Z,6.27
2023-04-12T02:55:05.150Z,7.70
2023-04-12T02:57:33.556Z,10.87
2023-04-12T03:00:07.538Z,7.37
2023-04-12T03:02:45.153Z,8.47
2023-04-12T03:05:21.391Z,9.73
2023-04-12T03:07:50.214Z,7.43
2023-04-12T03:10:22.701Z,8.13
2023-04-12T03:13:11.421Z,8.30
2023-04-12T03:15:43.927Z,8.67
2023-04-12T03:18:14.210Z,8.50
2023-04-12T03:20:49.164Z,11.27
2023-04-12T03:23:21.190Z,11.30
2023-04-12T03:25:56.905Z,7.97
2023-04-12T03:28:37.594Z,12.70
2023-04-12T03:31:08.858Z,8.43
2023-04-12T03:33:42.992Z,7.53
2023-04-12T03:36:21.631Z,10.07
2023-04-12T03:38:56.300Z,9.37
2023-04-12T03:41:24.826Z,9.00
2023-04-12T03:43:53.555Z,12.00
2023-04-12T03:46:22.097Z,12.17
2023-04-12T03:48:58.919Z,12.70
2023-04-12T03:51:30.783Z,15.63
2023-04-12T03:54:05.100Z,12.67
2023-04-12T03:56:46.411Z,16.43
2023-04-12T03:59:22.795Z,15.60
2023-04-12T04:01:52.353Z,11.37
2023-04-12T04:04:23.390Z,11.73
2023-04-12T04:06:56.779Z,14.13
2023-04-12T04:09:26.722Z,15.70
2023-04-12T04:11:55.070Z,10.57
2023-04-12T04:14:25.517Z,16.07
2023-04-12T04:16:54.142Z,13.77
2023-04-12T04:19:24.478Z,12.73
2023-04-12T04:21:53.404Z,13.47
2023-04-12T04:24:22.504Z,14.00
2023-04-12T04:26:54.895Z,14.77
2023-04-12T04:29:27.870Z,13.87
2023-04-12T04:31:57.522Z,12.70
2023-04-12T04:34:28.330Z,13.77
2023-04-12T04:37:07.423Z,13.63
2023-04-12T04:39:36.324Z,15.80
2023-04-12T04:42:06.700Z,14.70
2023-04-12T04:44:40.283Z,13.43
2023-04-12T04:47:11.883Z,14.33
2023-04-12T04:49:43.344Z,14.03
2023-04-12T04:52:26.558Z,18.13
2023-04-12T04:55:01.692Z,15.60
2023-04-12T04:57:36.839Z,14.77
2023-04-12T05:00:11.066Z,14.00
2023-04-12T05:02:42.955Z,17.30
2023-04-12T05:05:16.928Z,14.70
2023-04-12T05:07:47.395Z,17.93
2023-04-12T05:10:16.440Z,13.83
2023-04-12T05:12:45.966Z,14.80
2023-04-12T05:15:16.383Z,15.27
2023-04-12T05:17:45.200Z,13.47
2023-04-12T05:20:15.055Z,13.50
2023-04-12T05:22:44.793Z,13.57
2023-04-12T05:25:13.267Z,12.97
2023-04-12T05:27:51.760Z,12.77
2023-04-12T05:30:22.195Z,11.67
2023-04-12T05:32:51.801Z,12.40
2023-04-12T05:35:22.723Z,15.83
2023-04-12T05:37:54.669Z,12.37
2023-04-12T05:40:22.976Z,11.33
2023-04-12T05:42:53.678Z,10.60
2023-04-12T05:45:22.162Z,13.37
2023-04-12T05:47:50.734Z,10.63
2023-04-12T05:50:20.480Z,11.17
2023-04-12T05:52:52.092Z,7.57
2023-04-12T05:55:22.831Z,9.77
2023-04-12T05:57:51.634Z,10.37
2023-04-12T06:00:23.505Z,6.93
2023-04-12T06:02:52.418Z,8.17
2023-04-12T06:05:21.401Z,9.47
2023-04-12T06:07:51.716Z,8.63
2023-04-12T06:10:20.138Z,7.40
2023-04-12T06:12:52.386Z,12.10
2023-04-12T06:15:21.706Z,10.07
2023-04-12T06:17:55.565Z,8.53
2023-04-12T06:20:24.530Z,8.13
2023-04-12T06:22:54.955Z,8.37
2023-04-12T06:25:24.194Z,9.03
2023-04-12T06:27:53.810Z,6.40
2023-04-12T06:30:24.782Z,9.80
2023-04-12T06:32:55.336Z,8.27
2023-04-12T06:35:24.547Z,8.13
2023-04-12T06:37:55.307Z,7.43
2023-04-12T06:40:23.936Z,7.17
2023-04-12T06:42:52.822Z,7.03
2023-04-12T06:45:24.345Z,10.17
2023-04-12T06:47:54.705Z,7.80
2023-04-12T06:50:23.245Z,6.00
2023-04-12T06:52:51.572Z,8.57
2023-04-12T06:55:22.296Z,6.33
2023-04-12T06:57:52.174Z,6.67
2023-04-12T07:00:21.098Z,8.23
2023-04-12T07:02:49.950Z,6.50
2023-04-12T07:05:18.633Z,7.10
2023-04-12T07:07:47.344Z,6.37
2023-04-12T07:10:15.829Z,6.90
2023-04-12T07:12:45.821Z,7.10
2023-04-12T07:15:14.239Z,5.93
2023-04-12T07:17:42.617Z,9.43
2023-04-12T07:20:12.881Z,5.07
2023-04-12T07:22:41.297Z,4.70
2023-04-12T07:25:11.025Z,7.03
2023-04-12T07:27:39.461Z,6.27
2023-04-12T07:30:10.775Z,3.57
2023-04-12T07:32:39.440Z,3.40
2023-04-12T07:35:09.320Z,4.17
2023-04-12T07:37:38.641Z,4.83
2023-04-12T07:40:09.111Z,5.63
2023-04-12T07:42:37.554Z,5.87
2023-04-12T07:45:09.639Z,5.40
2023-04-12T07:47:38.319Z,3.30
2023-04-12T07:50:10.797Z,5.20
2023-04-12T07:52:41.459Z,4.83
2023-04-12T07:55:10.383Z,2.60
2023-04-12T07:57:38.913Z,2.80
2023-04-12T08:00:11.274Z,4.93
2023-04-12T08:02:42.621Z,7.20
2023-04-12T08:05:11.314Z,5.90
2023-04-12T08:07:39.949Z,3.67
2023-04-12T08:10:10.108Z,5.57
2023-04-12T08:12:38.342Z,2.90
2023-04-12T08:15:09.757Z,4.70
2023-04-12T08:17:38.443Z,3.60
2023-04-12T08:20:08.409Z,4.30
2023-04-12T08:22:37.137Z,5.97
2023-04-12T08:25:06.630Z,4.23
2023-04-12T08:27:36.115Z,4.23
2023-04-12T08:30:04.964Z,5.50
2023-04-12T08:32:35.336Z,5.50
2023-04-12T08:35:03.891Z,5.10
2023-04-12T08:37:32.410Z,4.73
2023-04-12T08:40:08.282Z,4.13
2023-04-12T08:42:38.139Z,8.03
2023-04-12T08:45:07.469Z,5.40
2023-04-12T08:47:40.407Z,6.60
2023-04-12T08:50:13.133Z,5.33
2023-04-12T08:52:43.765Z,7.20
2023-04-12T08:55:13.025Z,5.50
2023-04-12T08:57:43.562Z,7.33
2023-04-12T09:00:14.876Z,9.87
2023-04-12T09:02:47.231Z,5.83
2023-04-12T09:05:16.157Z,6.00
2023-04-12T09:07:44.685Z,9.73
2023-04-12T09:10:31.061Z,9.60
2023-04-12T09:12:59.957Z,10.30
2023-04-12T09:15:28.600Z,8.10
2023-04-12T09:18:10.238Z,6.53
2023-04-12T09:20:40.363Z,6.13
2023-04-12T09:23:20.678Z,6.83
2023-04-12T09:25:52.021Z,7.47
2023-04-12T09:28:24.029Z,9.50
2023-04-12T09:30:54.123Z,8.20
2023-04-12T09:33:34.873Z,9.17
2023-04-12T09:36:04.934Z,8.53
2023-04-12T09:38:36.790Z,8.97
2023-04-12T09:41:21.505Z,7.33
2023-04-12T09:43:52.091Z,6.67
2023-04-12T09:46:20.489Z,4.40
2023-04-12T09:48:54.147Z,3.77
2023-04-12T09:51:28.789Z,4.10
2023-04-12T09:54:02.063Z,5.23
2023-04-12T09:56:32.853Z,5.90
2023-04-12T09:59:04.354Z,4.43
2023-04-12T10:01:37.879Z,6.03
2023-04-12T10:04:11.306Z,4.83
2023-04-12T10:06:41.560Z,5.63
2023-04-12T10:09:10.521Z,4.70
2023-04-12T10:11:42.149Z,6.30
2023-04-12T10:14:17.538Z,6.40
2023-04-12T10:16:47.392Z,5.47
2023-04-12T10:19:19.489Z,4.03
2023-04-12T10:21:48.182Z,5.13
2023-04-12T10:24:18.096Z,4.53
2023-04-12T10:26:46.645Z,3.73
2023-04-12T10:29:27.426Z,5.27
2023-04-12T10:31:57.249Z,5.53
2023-04-12T10:34:29.717Z,5.33
2023-04-12T10:37:00.694Z,8.13
2023-04-12T10:39:41.397Z,5.10
2023-04-12T10:42:22.956Z,7.20
2023-04-12T10:44:53.374Z,7.93
2023-04-12T10:48:03.295Z,5.03
2023-04-12T10:50:35.482Z,4.63
2023-04-12T10:53:26.189Z,4.43
2023-04-12T10:55:54.705Z,7.17
2023-04-12T10:59:01.101Z,5.00
2023-04-12T11:01:38.323Z,5.77
2023-04-12T11:04:20.578Z,5.70
2023-04-12T11:07:10.166Z,5.90
2023-04-12T11:09:59.142Z,7.20
2023-04-12T11:12:39.770Z,7.63
2023-04-12T11:15:12.878Z,8.17
2023-04-12T11:17:56.403Z,9.13
2023-04-12T11:20:27.662Z,6.33
2023-04-12T11:22:58.825Z,8.23
2023-04-12T11:25:27.665Z,6.97
2023-04-12T11:27:57.462Z,8.00
2023-04-12T11:30:30.040Z,5.73
2023-04-12T11:32:58.529Z,8.40
2023-04-12T11:35:30.427Z,7.33
2023-04-12T11:38:00.990Z,6.33
2023-04-12T11:40:29.685Z,8.63
2023-04-12T11:42:58.696Z,6.70
2023-04-12T11:45:29.514Z,7.83
2023-04-12T11:47:58.517Z,6.47
2023-04-12T11:50:32.463Z,6.93
2023-04-12T11:53:13.148Z,9.60
2023-04-12T11:55:42.389Z,8.47
2023-04-12T11:58:10.896Z,8.60
2023-04-12T12:00:39.517Z,7.80
2023-04-12T12:03:08.893Z,7.80
2023-04-12T12:05:40.278Z,9.73
2023-04-12T12:08:09.798Z,7.70
2023-04-12T12:10:49.162Z,7.43
2023-04-12T12:13:28.756Z,7.10
2023-04-12T12:15:58.643Z,5.80
2023-04-12T12:18:28.991Z,6.33
2023-04-12T12:20:57.402Z,7.10
2023-04-12T12:23:31.396Z,7.57
2023-04-12T12:26:17.987Z,6.33
2023-04-12T12:28:52.534Z,8.77
2023-04-12T12:31:23.748Z,6.83
2023-04-12T12:33:57.151Z,6.80
2023-04-12T12:36:33.361Z,12.07
2023-04-12T12:39:10.502Z,9.30
2023-04-12T12:41:41.245Z,9.60
2023-04-12T12:44:11.413Z,7.63
2023-04-12T12:46:52.426Z,7.67
2023-04-12T12:49:22.360Z,7.23
2023-04-12T12:51:52.315Z,7.30
2023-04-12T12:54:36.873Z,5.30
2023-04-12T12:57:10.855Z,5.93
2023-04-12T12:59:39.390Z,7.10
2023-04-12T13:02:08.857Z,5.17
2023-04-12T13:04:37.360Z,5.47
2023-04-12T13:07:06.376Z,6.90
2023-04-12T13:09:34.767Z,5.50
2023-04-12T13:12:04.322Z,4.27
2023-04-12T13:14:34.535Z,7.07
2023-04-12T13:17:02.921Z,7.60
2023-04-12T13:19:32.129Z,7.63
2023-04-12T13:22:00.836Z,6.93
2023-04-12T13:24:29.492Z,5.68
2023-04-12T13:26:58.148Z,5.28
2023-04-12T13:29:26.977Z,4.18
2023-04-12T13:31:56.986Z,3.15
2023-04-12T13:34:25.944Z,2.97
2023-04-12T13:36:54.279Z,5.35
2023-04-12T13:39:22.924Z,3.03
2023-04-12T13:41:51.537Z,3.50
2023-04-12T13:44:20.192Z,5.43
2023-04-12T13:46:48.878Z,4.45
2023-04-12T13:49:18.616Z,3.10
2023-04-12T13:51:47.274Z,4.47
2023-04-12T13:54:17.505Z,4.80
2023-04-12T13:56:45.921Z,4.53
2023-04-12T13:59:14.353Z,3.28
2023-04-12T14:01:43.318Z,7.05
2023-04-12T14:04:12.085Z,6.50
2023-04-12T14:06:41.805Z,6.13
2023-04-12T14:09:10.171Z,8.70
2023-04-12T14:11:48.932Z,4.50
2023-04-12T14:14:17.354Z,5.50
2023-04-12T14:16:45.779Z,5.13
2023-04-12T14:19:14.204Z,6.18
2023-04-12T14:21:43.938Z,6.57
2023-04-12T14:24:12.595Z,6.10
2023-04-12T14:26:41.400Z,6.38
2023-04-12T14:29:10.138Z,5.78
2023-04-12T14:31:39.060Z,7.18
2023-04-12T14:34:08.763Z,6.33
2023-04-12T14:36:37.297Z,5.53
2023-04-12T14:39:10.507Z,6.22
2023-04-12T14:41:41.016Z,5.10
2023-04-12T14:44:09.689Z,8.00
2023-04-12T14:46:38.471Z,7.47
2023-04-12T14:49:07.096Z,6.47
2023-04-12T14:51:36.066Z,8.00
2023-04-12T14:54:06.355Z,4.72
2023-04-12T14:56:41.925Z,4.88
2023-04-12T14:59:13.491Z,4.78
2023-04-12T15:01:43.433Z,4.60
2023-04-12T15:04:13.008Z,4.68
2023-04-12T15:06:43.778Z,4.68
2023-04-12T15:09:17.779Z,3.55
2023-04-12T15:11:47.048Z,4.15
2023-04-12T15:14:19.950Z,3.90
2023-04-12T15:16:50.277Z,11.80
2023-04-12T15:19:22.733Z,6.38
2023-04-12T15:21:55.505Z,21.30
2023-04-12T15:24:26.476Z,19.95
2023-04-12T15:26:55.183Z,10.48
2023-04-12T15:29:24.606Z,26.38
2023-04-12T15:31:53.709Z,12.10
2023-04-12T15:34:23.668Z,32.03
2023-04-12T15:36:53.031Z,50.55
2023-04-12T15:39:22.255Z,34.97
2023-04-12T15:41:52.288Z,20.50
2023-04-12T15:44:21.855Z,11.73
2023-04-12T15:46:59.525Z,13.45
2023-04-12T15:49:36.610Z,10.02
2023-04-12T15:52:05.449Z,19.38
2023-04-12T15:54:33.925Z,22.85
2023-04-12T15:57:09.674Z,9.40
2023-04-12T15:59:38.822Z,9.85
2023-04-12T16:02:09.594Z,16.33
2023-04-12T16:04:39.322Z,8.18
2023-04-12T16:07:09.077Z,23.73
2023-04-12T16:09:40.566Z,20.67
2023-04-12T16:12:10.577Z,26.58
2023-04-12T16:14:39.453Z,12.70
2023-04-12T16:17:08.516Z,7.90
2023-04-12T16:19:37.655Z,8.10
2023-04-12T16:22:06.218Z,6.57
2023-04-12T16:24:34.582Z,7.18
2023-04-12T16:27:02.985Z,2.53
2023-04-12T16:29:32.638Z,4.55
2023-04-12T16:32:01.194Z,5.75
2023-04-12T16:34:29.618Z,5.55
2023-04-12T16:36:58.022Z,3.42
2023-04-12T16:39:26.737Z,4.03
2023-04-12T16:41:55.078Z,4.93
2023-04-12T16:44:23.421Z,6.28
2023-04-12T16:46:54.082Z,3.50
2023-04-12T16:49:23.018Z,3.50
2023-04-12T16:51:52.443Z,3.13
2023-04-12T16:54:21.804Z,1.60
2023-04-12T16:56:50.129Z,4.32
2023-04-12T16:59:18.441Z,3.80
2023-04-12T17:01:47.734Z,3.65
2023-04-12T17:04:18.043Z,2.65
2023-04-12T17:06:47.045Z,1.98
2023-04-12T17:09:15.397Z,2.78
2023-04-12T17:11:43.782Z,2.53
2023-04-12T17:14:13.750Z,1.65
2023-04-12T17:16:42.500Z,1.20
2023-04-12T17:19:10.893Z,1.67
2023-04-12T17:21:44.723Z,2.47
2023-04-12T17:24:13.208Z,3.50
2023-04-12T17:26:41.611Z,2.75
2023-04-12T17:29:10.107Z,2.95
2023-04-12T17:31:39.567Z,3.30
2023-04-12T17:34:08.358Z,1.98
2023-04-12T17:36:38.215Z,5.03
2023-04-12T17:39:08.003Z,2.17
2023-04-12T17:41:36.550Z,3.75
2023-04-12T17:44:06.059Z,2.42
2023-04-12T17:46:35.332Z,3.50
2023-04-12T17:49:05.914Z,3.10
2023-04-12T17:51:34.586Z,2.72
2023-04-12T17:54:03.647Z,2.95
2023-04-12T17:56:33.452Z,1.88
2023-04-12T17:59:05.448Z,5.88
2023-04-12T18:01:36.247Z,4.82
2023-04-12T18:04:07.101Z,3.20
2023-04-12T18:06:35.771Z,3.25
2023-04-12T18:09:04.690Z,2.60
2023-04-12T18:11:36.202Z,0.88
2023-04-12T18:14:04.950Z,0.90
2023-04-12T18:16:33.579Z,2.53
2023-04-12T18:19:05.689Z,0.80
2023-04-12T18:21:34.648Z,0.68
2023-04-12T18:24:04.629Z,1.05
2023-04-12T18:26:34.444Z,2.77
2023-04-12T18:29:02.817Z,1.05
2023-04-12T18:31:31.374Z,4.47
2023-04-12T18:34:00.108Z,4.20
2023-04-12T18:36:28.863Z,1.73
2023-04-12T18:38:57.198Z,0.77
2023-04-12T18:41:25.917Z,0.80
2023-04-12T18:43:57.185Z,0.40
2023-04-12T18:46:28.996Z,0.50
2023-04-12T18:48:58.705Z,2.50
2023-04-12T18:51:27.067Z,3.73
2023-04-12T18:53:55.620Z,2.17
2023-04-12T18:56:25.374Z,1.00
2023-04-12T18:58:56.777Z,0.57
2023-04-12T19:01:26.194Z,0.83
2023-04-12T19:03:55.247Z,5.60
2023-04-12T19:06:24.015Z,2.47
2023-04-12T19:08:52.310Z,1.30
2023-04-12T19:11:20.693Z,0.77
2023-04-12T19:13:50.209Z,0.80
2023-04-12T19:16:20.094Z,1.33
2023-04-12T19:18:48.483Z,1.73
2023-04-12T19:21:16.801Z,1.27
2023-04-12T19:23:45.350Z,1.40
2023-04-12T19:26:14.017Z,0.63
2023-04-12T19:28:43.433Z,1.03
2023-04-12T19:31:14.172Z,0.60
2023-04-12T19:33:44.408Z,0.60
2023-04-12T19:36:13.261Z,1.00
2023-04-12T19:38:44.152Z,1.93
2023-04-12T19:41:12.512Z,0.97
2023-04-12T19:43:41.100Z,0.63
2023-04-12T19:46:09.579Z,0.73
2023-04-12T19:48:38.250Z,1.80
2023-04-12T19:51:08.314Z,0.87
2023-04-12T19:53:37.194Z,1.93
2023-04-12T19:56:06.594Z,0.90
2023-04-12T19:58:35.935Z,0.70
2023-04-12T20:01:05.504Z,0.50
2023-04-12T20:03:33.944Z,0.80
2023-04-12T20:06:04.356Z,0.73
2023-04-12T20:08:35.590Z,1.07
2023-04-12T20:11:03.968Z,0.83
2023-04-12T20:13:34.236Z,0.50
2023-04-12T20:16:04.595Z,1.23
2023-04-12T20:18:34.458Z,2.10
2023-04-12T20:21:04.458Z,1.53
2023-04-12T20:23:34.349Z,3.23
2023-04-12T20:26:02.696Z,2.30
2023-04-12T20:28:31.385Z,2.30
2023-04-12T20:31:00.411Z,2.20
2023-04-12T20:33:29.411Z,2.07
2023-04-12T20:35:57.772Z,2.50
2023-04-12T20:38:26.732Z,2.40
2023-04-12T20:40:57.456Z,2.13
2023-04-12T20:43:26.467Z,1.87
2023-04-12T20:45:55.020Z,1.97
2023-04-12T20:48:23.432Z,2.20
2023-04-12T20:50:52.496Z,2.83
2023-04-12T20:53:21.031Z,3.50
2023-04-12T20:55:49.824Z,2.40
2023-04-12T20:58:19.723Z,3.10
2023-04-12T21:00:48.109Z,2.73
2023-04-12T21:03:17.639Z,2.63
2023-04-12T21:05:50.521Z,2.77
2023-04-12T21:08:19.566Z,2.50
2023-04-12T21:10:48.575Z,1.83
2023-04-12T21:13:21.825Z,2.60
2023-04-12T21:15:52.692Z,2.17
2023-04-12T21:18:22.417Z,2.97
2023-04-12T21:20:51.787Z,3.07
2023-04-12T21:23:20.195Z,2.27
2023-04-12T21:25:49.701Z,3.13
2023-04-12T21:28:18.301Z,1.43
2023-04-12T21:30:46.687Z,1.40
2023-04-12T21:33:25.061Z,1.23
2023-04-12T21:35:55.147Z,4.03
2023-04-12T21:38:24.835Z,1.43
2023-04-12T21:40:57.295Z,1.20
2023-04-12T21:43:26.138Z,1.80
2023-04-12T21:45:54.679Z,1.23
2023-04-12T21:48:24.499Z,1.30
2023-04-12T21:50:53.035Z,1.13
2023-04-12T21:53:21.405Z,1.93
2023-04-12T21:55:50.822Z,2.47
2023-04-12T21:58:19.251Z,1.90
2023-04-12T22:00:48.220Z,1.47
2023-04-12T22:03:16.967Z,2.87
2023-04-12T22:06:00.725Z,1.53
2023-04-12T22:08:32.993Z,1.30
2023-04-12T22:11:01.785Z,1.53
2023-04-12T22:13:30.839Z,2.80
2023-04-12T22:16:00.776Z,1.57
2023-04-12T22:18:31.777Z,1.73
2023-04-12T22:21:04.039Z,1.17
2023-04-12T22:23:32.337Z,1.87
2023-04-12T22:26:00.744Z,2.33
2023-04-12T22:28:29.213Z,0.90
2023-04-12T22:30:58.138Z,1.30
2023-04-12T22:33:27.258Z,1.47
2023-04-12T22:35:57.018Z,3.00
2023-04-12T22:38:27.553Z,1.27
2023-04-12T22:41:02.027Z,1.97
2023-04-12T22:43:34.013Z,2.33
2023-04-12T22:46:05.125Z,3.33
2023-04-12T22:48:33.784Z,1.43
2023-04-12T22:51:03.665Z,1.57
2023-04-12T22:53:34.637Z,2.07
2023-04-12T22:56:03.307Z,2.03
2023-04-12T22:58:32.173Z,2.40
2023-04-12T23:01:00.522Z,4.10
2023-04-12T23:03:28.899Z,1.67
2023-04-12T23:05:57.806Z,2.53
2023-04-12T23:08:26.342Z,3.07
2023-04-12T23:11:01.723Z,3.53
2023-04-12T23:13:33.893Z,2.97
2023-04-12T23:16:03.412Z,1.67
2023-04-12T23:18:32.888Z,1.53
2023-04-12T23:21:01.666Z,1.67
2023-04-12T23:23:30.237Z,1.20
2023-04-12T23:26:01.019Z,2.20
2023-04-12T23:28:29.324Z,1.60
2023-04-12T23:31:01.682Z,2.60
2023-04-12T23:33:30.567Z,2.33
2023-04-12T23:36:03.095Z,2.20
2023-04-12T23:38:33.915Z,2.30
2023-04-12T23:41:05.218Z,2.50
2023-04-12T23:43:34.983Z,2.10
2023-04-12T23:46:04.231Z,1.17
2023-04-12T23:48:33.794Z,1.00
2023-04-12T23:51:02.229Z,1.80
2023-04-12T23:53:30.793Z,0.77
2023-04-12T23:55:59.227Z,0.80
2023-04-12T23:58:28.942Z,1.43
